< < Back
Terminal Aerodrome Forecast


Current Version              Previous Versions:   1  2  3  4  5  6  7  8  9  

Terminal Aerodrome Forecast

505
FTUS42 KMLB 301700 RRA
TAFDAB
TAF
KDAB 301743Z 3018/3118 27012G20KT P6SM FEW015 FEW080 SCT250
     FM301900 34011G18KT P6SM SCT250
     FM310000 01008KT P6SM FEW250
     FM311400 06011G18KT P6SM FEW250=



Latest METAR

063
SAUS80 KWBC 302300
MTRDAB
METAR KDAB 302253Z 02008KT 10SM FEW047 BKN250 16/10 A3017 RMK AO2 SLP215
T01610100


USA.gov is the U.S. government's official web portal to all federal, state and local government web resources and services.